Time;durP1;ratioP1;P1;durP2;ratioP2;P2;SDS_P1;SDS_P2;PMS_P1;PMS_P2;Temp;Humidity;BMP_temperature;BMP_pressure;BME280_temperature;BME280_humidity;BME280_pressure;Samples;Min_cycle;Max_cycle;Signal;HPM_P1;HPM_P2
2023/01/05 00:00:52;;;;;;;;;;;;;;;12.43;71.22;101605.16;5050546;28;19928;-72
2023/01/05 00:03:17;;;;;;;;;;;;;;;12.41;71.36;101594.53;5050280;28;19931;-71
2023/01/05 00:05:42;;;;;;;;;;;;;;;12.40;71.39;101603.75;5047213;28;20617;-71
2023/01/05 00:08:08;;;;;;;;;;;;;;;12.41;71.35;101605.38;5047361;28;19931;-72
2023/01/05 00:24:16;;;;;;;;;;;;;;;12.37;71.37;101606.06;5052534;28;19978;-72
2023/01/05 00:26:41;;;;;;;;;;;;;;;12.36;71.41;101593.59;5049186;28;19976;-71
2023/01/05 00:29:07;;;;;;;;;;;;;;;12.35;71.43;101600.91;5053389;28;19927;-72
2023/01/05 00:31:32;;;;;;;;;;;;;;;12.36;71.49;101601.72;5038175;28;20319;-72
2023/01/05 00:33:57;;;;;;;;;;;;;;;12.36;71.37;101593.59;5038516;28;20023;-73
2023/01/05 00:36:22;;;;;;;;;;;;;;;12.36;71.62;101590.88;5047533;28;19932;-72
2023/01/05 00:38:48;;;;;;;;;;;;;;;12.34;71.47;101591.09;5035258;28;19921;-71
2023/01/05 00:41:13;;;;;;;;;;;;;;;12.34;71.42;101596.53;5037460;28;19925;-71
2023/01/05 00:43:38;;;;;;;;;;;;;;;12.33;71.41;101608.44;5051031;28;19932;-72
2023/01/05 00:46:04;;;;;;;;;;;;;;;12.32;71.47;101604.06;5045523;28;19929;-71
2023/01/05 00:48:29;;;;;;;;;;;;;;;12.32;71.29;101601.34;5039105;28;19939;-71
2023/01/05 00:50:54;;;;;;;;;;;;;;;12.30;71.38;101600.78;5046564;28;19921;-71
2023/01/05 00:53:20;;;;;;;;;;;;;;;12.30;71.43;101600.78;5038808;28;19925;-71
2023/01/05 00:55:54;;;;;;;;;;;;;;;12.29;71.32;101599.94;5045391;28;19924;-72
2023/01/05 00:58:19;;;;;;;;;;;;;;;12.29;71.32;101613.47;5048425;28;20332;-72
2023/01/05 01:00:44;;;;;;;;;;;;;;;12.28;71.24;101601.00;5052409;28;19937;-72
2023/01/05 01:03:09;;;;;;;;;;;;;;;12.28;71.34;101602.91;5036703;28;20360;-72
2023/01/05 01:05:35;;;;;;;;;;;;;;;12.27;71.20;101607.50;5039948;28;20281;-71
2023/01/05 01:08:00;;;;;;;;;;;;;;;12.27;71.04;101610.19;5048549;28;20003;-71
2023/01/05 01:10:25;;;;;;;;;;;;;;;12.26;71.44;101613.13;5042287;28;19925;-71
2023/01/05 01:12:51;;;;;;;;;;;;;;;12.25;71.29;101604.19;5048258;28;19925;-72
2023/01/05 01:15:17;;;;;;;;;;;;;;;12.25;71.28;101606.06;5041130;28;20357;-72
2023/01/05 01:17:42;;;;;;;;;;;;;;;12.24;71.37;101607.94;5048416;28;20012;-71
2023/01/05 01:20:07;;;;;;;;;;;;;;;12.24;71.22;101604.41;5048880;28;20296;-72
2023/01/05 01:22:33;;;;;;;;;;;;;;;12.24;71.27;101607.13;5047684;28;19990;-72
2023/01/05 01:24:58;;;;;;;;;;;;;;;12.22;71.17;101612.78;5038168;28;19925;-72
2023/01/05 01:27:23;;;;;;;;;;;;;;;12.22;71.14;101620.06;5050352;28;20280;-72
2023/01/05 01:29:49;;;;;;;;;;;;;;;12.21;71.14;101624.66;5046772;28;20023;-72
2023/01/05 01:32:14;;;;;;;;;;;;;;;12.20;71.25;101617.59;5043580;28;19964;-73
2023/01/05 01:34:39;;;;;;;;;;;;;;;12.20;71.17;101627.63;5039024;28;19925;-73
2023/01/05 01:37:04;;;;;;;;;;;;;;;12.20;71.25;101643.88;5047314;28;20622;-72
2023/01/05 01:39:30;;;;;;;;;;;;;;;12.18;71.32;101635.13;5040407;28;19921;-72
2023/01/05 01:41:55;;;;;;;;;;;;;;;12.17;71.46;101637.03;5045091;28;20406;-72
2023/01/05 01:44:39;;;;;;;;;;;;;;;12.17;71.45;101631.63;5039169;28;20377;-72
2023/01/05 01:47:04;;;;;;;;;;;;;;;12.16;71.45;101639.97;5045203;28;19920;-72
2023/01/05 01:49:30;;;;;;;;;;;;;;;12.15;71.36;101633.72;5047954;28;20307;-72
2023/01/05 01:51:55;;;;;;;;;;;;;;;12.14;71.31;101642.88;5048967;28;19974;-71
2023/01/05 01:54:20;;;;;;;;;;;;;;;12.13;71.25;101643.97;5038145;28;19925;-71
2023/01/05 01:56:49;;;;;;;;;;;;;;;12.12;71.28;101658.56;5046046;28;20006;-71
2023/01/05 01:59:16;;;;;;;;;;;;;;;12.10;71.11;101647.94;5048194;28;19943;-70
2023/01/05 02:01:41;;;;;;;;;;;;;;;12.10;71.27;101647.13;5035174;28;19964;-71
2023/01/05 02:04:08;;;;;;;;;;;;;;;12.10;71.21;101658.78;5035775;28;19975;-71
2023/01/05 02:06:33;;;;;;;;;;;;;;;12.09;71.04;101654.41;5031072;28;19933;-71
2023/01/05 02:08:59;;;;;;;;;;;;;;;12.08;71.21;101652.75;5033304;28;19921;-71
2023/01/05 02:11:42;;;;;;;;;;;;;;;12.08;71.22;101651.94;5030646;28;19921;-71
2023/01/05 02:14:23;;;;;;;;;;;;;;;12.05;71.08;101666.78;5031738;28;19929;-71
2023/01/05 02:17:00;;;;;;;;;;;;;;;12.05;71.28;101669.47;5043420;28;19932;-71
2023/01/05 02:19:25;;;;;;;;;;;;;;;12.05;71.22;101661.34;5048163;28;19921;-71
2023/01/05 02:22:10;;;;;;;;;;;;;;;12.05;71.37;101658.66;5042237;28;19928;-72
2023/01/05 02:24:38;;;;;;;;;;;;;;;12.05;71.18;101663.25;5031418;28;19941;-71
2023/01/05 02:27:18;;;;;;;;;;;;;;;12.04;71.24;101664.28;5036868;28;19928;-70
2023/01/05 02:29:46;;;;;;;;;;;;;;;12.04;71.27;101669.69;5034933;28;19917;-71
2023/01/05 02:32:11;;;;;;;;;;;;;;;12.04;71.09;101667.00;5031633;28;19921;-72
2023/01/05 02:34:48;;;;;;;;;;;;;;;12.02;71.28;101653.69;5030946;28;19972;-72
2023/01/05 02:37:16;;;;;;;;;;;;;;;12.02;71.13;101661.81;5033961;28;19921;-71
2023/01/05 02:39:48;;;;;;;;;;;;;;;12.03;71.25;101666.16;5031043;28;19920;-73
2023/01/05 02:42:23;;;;;;;;;;;;;;;12.02;71.38;101667.25;5031529;28;19917;-72
2023/01/05 02:44:48;;;;;;;;;;;;;;;12.03;71.25;101670.75;5031295;28;19925;-72
2023/01/05 02:47:29;;;;;;;;;;;;;;;12.03;71.26;101684.31;5032299;28;19967;-71
2023/01/05 02:50:03;;;;;;;;;;;;;;;12.02;71.30;101671.81;5036461;28;19928;-72
2023/01/05 02:52:31;;;;;;;;;;;;;;;12.02;71.17;101675.34;5042343;28;19921;-72
2023/01/05 02:54:59;;;;;;;;;;;;;;;12.02;71.20;101679.94;5031598;28;19917;-72
2023/01/05 02:57:46;;;;;;;;;;;;;;;12.01;71.07;101676.41;5030734;28;20475;-73
2023/01/05 03:00:21;;;;;;;;;;;;;;;12.00;71.28;101680.19;5038107;28;19966;-71
2023/01/05 03:02:48;;;;;;;;;;;;;;;11.99;71.39;101693.94;5041616;28;19917;-71
2023/01/05 03:05:21;;;;;;;;;;;;;;;11.99;71.29;101694.75;5031357;28;20059;-71
2023/01/05 03:07:49;;;;;;;;;;;;;;;11.99;71.26;101685.81;5031022;28;20007;-72
2023/01/05 03:15:45;;;;;;;;;;;;;;;11.98;71.14;101697.72;5034403;28;19978;-71
2023/01/05 03:18:13;;;;;;;;;;;;;;;11.97;70.98;101694.19;5034549;28;19917;-72
2023/01/05 03:20:41;;;;;;;;;;;;;;;11.97;70.84;101691.47;5034459;28;19921;-71
2023/01/05 03:37:12;;;;;;;;;;;;;;;11.95;71.16;101685.44;5034402;28;19975;-71
2023/01/05 03:39:39;;;;;;;;;;;;;;;11.95;71.31;101696.28;5033836;28;19924;-72
2023/01/05 03:42:06;;;;;;;;;;;;;;;11.95;71.21;101685.44;5053591;28;19917;-72
2023/01/05 03:44:33;;;;;;;;;;;;;;;11.95;70.97;101699.00;5044145;28;19921;-72
2023/01/05 03:46:59;;;;;;;;;;;;;;;11.95;71.25;101690.03;5048157;28;20383;-71
2023/01/05 03:49:24;;;;;;;;;;;;;;;11.94;71.01;101696.50;5052935;28;19992;-71
2023/01/05 03:51:49;;;;;;;;;;;;;;;11.93;70.97;101700.28;5053049;28;19955;-71
2023/01/05 03:54:15;;;;;;;;;;;;;;;11.93;71.08;101698.38;5053328;28;19925;-71
2023/01/05 03:56:40;;;;;;;;;;;;;;;11.94;71.09;101696.50;5041463;28;20418;-72
2023/01/05 03:59:05;;;;;;;;;;;;;;;11.94;71.20;101707.31;5033953;28;19921;-71
2023/01/05 04:01:30;;;;;;;;;;;;;;;11.94;71.21;101704.63;5033550;28;20000;-71
2023/01/05 04:03:56;;;;;;;;;;;;;;;11.92;70.96;101707.56;5034608;28;20365;-72
2023/01/05 04:06:21;;;;;;;;;;;;;;;11.92;70.99;101707.56;5039846;28;20273;-71
2023/01/05 04:08:46;;;;;;;;;;;;;;;11.92;71.10;101704.88;5048693;28;19956;-71
2023/01/05 04:11:16;;;;;;;;;;;;;;;11.93;71.24;101697.56;5033494;28;19953;-72
2023/01/05 04:13:41;;;;;;;;;;;;;;;11.92;71.23;101702.16;5033328;28;20459;-72
2023/01/05 04:16:07;;;;;;;;;;;;;;;11.90;71.20;101699.66;5033832;28;20024;-71
2023/01/05 04:18:32;;;;;;;;;;;;;;;11.91;71.17;101697.78;5038570;28;20270;-71
2023/01/05 04:20:57;;;;;;;;;;;;;;;11.90;71.19;101699.66;5043788;28;19921;-71
2023/01/05 04:23:22;;;;;;;;;;;;;;;11.91;71.10;101711.31;5037423;28;19971;-71
2023/01/05 04:25:47;;;;;;;;;;;;;;;11.92;71.23;101715.69;5052588;28;20388;-71
2023/01/05 04:28:13;;;;;;;;;;;;;;;11.91;71.24;101708.63;5051935;28;20373;-70
2023/01/05 04:30:38;;;;;;;;;;;;;;;11.91;70.96;101695.91;5051962;28;19925;-71
2023/01/05 04:33:03;;;;;;;;;;;;;;;11.91;71.00;101714.03;5034827;28;19928;-71
2023/01/05 04:35:28;;;;;;;;;;;;;;;11.91;71.09;101706.72;5036124;28;19927;-71
2023/01/05 04:37:54;;;;;;;;;;;;;;;11.92;71.12;101707.56;5052437;28;20073;-71
2023/01/05 04:40:19;;;;;;;;;;;;;;;11.92;71.10;101707.56;5052462;28;19925;-71
2023/01/05 04:42:45;;;;;;;;;;;;;;;11.90;71.19;101712.38;5034552;28;19917;-71
2023/01/05 04:45:10;;;;;;;;;;;;;;;11.91;71.04;101708.63;5047850;28;19955;-72
2023/01/05 04:47:36;;;;;;;;;;;;;;;11.90;71.12;101715.91;5051181;28;19960;-72
2023/01/05 04:50:01;;;;;;;;;;;;;;;11.89;71.12;101708.84;5047907;28;19921;-72
2023/01/05 04:52:26;;;;;;;;;;;;;;;11.89;71.26;101697.19;5037924;28;19921;-71
2023/01/05 04:54:51;;;;;;;;;;;;;;;11.89;71.21;101716.97;5032651;28;20020;-72
2023/01/05 04:57:16;;;;;;;;;;;;;;;11.90;71.15;101712.38;5032540;28;19971;-71
2023/01/05 04:59:42;;;;;;;;;;;;;;;11.90;71.21;101705.09;5032414;28;19921;-71
2023/01/05 05:02:07;;;;;;;;;;;;;;;11.89;71.20;101724.25;5034023;28;20369;-71
2023/01/05 05:04:33;;;;;;;;;;;;;;;11.90;71.05;101725.91;5032190;28;20360;-72
2023/01/05 05:06:58;;;;;;;;;;;;;;;11.89;71.21;101727.81;5031976;28;19929;-72
2023/01/05 05:09:23;;;;;;;;;;;;;;;11.89;71.01;101722.41;5032584;28;19921;-71
2023/01/05 05:11:48;;;;;;;;;;;;;;;11.89;71.19;101721.53;5033910;28;19925;-72
2023/01/05 05:14:14;;;;;;;;;;;;;;;11.89;71.32;101730.50;5045132;28;19971;-71
2023/01/05 05:16:39;;;;;;;;;;;;;;;11.90;71.27;101731.34;5037171;28;19917;-72
2023/01/05 05:19:04;;;;;;;;;;;;;;;11.89;71.19;101735.06;5032235;28;19921;-71
2023/01/05 05:21:29;;;;;;;;;;;;;;;11.89;71.33;101740.50;5032534;28;19928;-72
2023/01/05 05:23:55;;;;;;;;;;;;;;;11.90;71.29;101742.16;5040646;28;20411;-72
2023/01/05 05:26:20;;;;;;;;;;;;;;;11.90;71.03;101728.63;5035827;28;20246;-71
2023/01/05 05:28:45;;;;;;;;;;;;;;;11.89;71.30;101733.22;5032032;28;20067;-72
2023/01/05 05:31:10;;;;;;;;;;;;;;;11.90;71.31;101729.44;5032555;28;20030;-72
2023/01/05 05:33:36;;;;;;;;;;;;;;;11.89;71.21;101744.06;5050498;28;19921;-73
2023/01/05 05:36:02;;;;;;;;;;;;;;;11.89;71.18;101741.34;5037742;28;20285;-71
2023/01/05 05:38:27;;;;;;;;;;;;;;;11.90;70.98;101742.16;5047037;28;20024;-71
2023/01/05 05:40:53;;;;;;;;;;;;;;;11.91;71.24;101750.03;5047098;28;19924;-72
2023/01/05 05:43:18;;;;;;;;;;;;;;;11.90;71.30;101750.28;5032137;28;20365;-71
2023/01/05 05:45:44;;;;;;;;;;;;;;;11.90;71.17;101753.81;5031405;28;20255;-71
2023/01/05 05:48:09;;;;;;;;;;;;;;;11.90;71.04;101753.00;5041885;28;19921;-70
2023/01/05 05:50:34;;;;;;;;;;;;;;;11.90;71.27;101759.22;5032288;28;19995;-71
2023/01/05 05:53:00;;;;;;;;;;;;;;;11.90;71.20;101761.13;5043269;28;19978;-71
2023/01/05 05:55:25;;;;;;;;;;;;;;;11.90;71.03;101770.06;5032209;28;19968;-72
2023/01/05 05:57:50;;;;;;;;;;;;;;;11.90;71.03;101763.81;5044236;28;20458;-72
2023/01/05 06:00:16;;;;;;;;;;;;;;;11.89;70.97;101771.13;5036500;28;19925;-71
2023/01/05 06:02:41;;;;;;;;;;;;;;;11.88;71.12;101780.28;5031625;28;19917;-73
2023/01/05 06:05:06;;;;;;;;;;;;;;;11.90;71.05;101780.06;5031889;28;20289;-69
2023/01/05 06:07:31;;;;;;;;;;;;;;;11.89;70.97;101781.09;5040429;28;20296;-69
2023/01/05 06:09:57;;;;;;;;;;;;;;;11.88;71.21;101783.00;5031720;28;19921;-71
2023/01/05 06:12:22;;;;;;;;;;;;;;;11.89;71.19;101781.09;5037119;28;19924;-71
2023/01/05 06:14:47;;;;;;;;;;;;;;;11.89;71.04;101786.53;5050683;28;20003;-71
2023/01/05 06:17:12;;;;;;;;;;;;;;;11.89;71.13;101794.63;5039602;28;19921;-71
2023/01/05 06:19:38;;;;;;;;;;;;;;;11.89;71.00;101800.06;5047310;28;20312;-71
2023/01/05 06:22:03;;;;;;;;;;;;;;;11.88;71.16;101801.94;5030247;28;19921;-72
2023/01/05 06:24:28;;;;;;;;;;;;;;;11.88;71.11;101791.13;5045304;28;19928;-67
2023/01/05 06:26:54;;;;;;;;;;;;;;;11.88;71.04;101807.34;5050559;28;19921;-73
2023/01/05 06:29:19;;;;;;;;;;;;;;;11.88;71.00;101809.25;5051326;28;20019;-72
2023/01/05 06:31:44;;;;;;;;;;;;;;;11.87;70.99;101810.31;5050922;28;19931;-72
2023/01/05 06:34:09;;;;;;;;;;;;;;;11.89;71.04;101814.44;5035397;28;19924;-72
2023/01/05 06:36:35;;;;;;;;;;;;;;;11.89;70.85;101816.31;5040109;28;19926;-72
2023/01/05 06:39:00;;;;;;;;;;;;;;;11.89;71.02;101827.13;5030983;28;19921;-72
2023/01/05 06:41:25;;;;;;;;;;;;;;;11.88;71.13;101826.31;5031789;28;19928;-72
2023/01/05 06:43:50;;;;;;;;;;;;;;;11.88;71.14;101834.44;5047764;28;20016;-72
2023/01/05 06:46:16;;;;;;;;;;;;;;;11.89;70.98;101835.25;5051155;28;19928;-71
2023/01/05 06:48:41;;;;;;;;;;;;;;;11.89;71.08;101837.97;5038211;28;19963;-72
2023/01/05 06:51:06;;;;;;;;;;;;;;;11.88;71.13;101847.16;5033219;28;20003;-71
2023/01/05 06:53:31;;;;;;;;;;;;;;;11.87;71.15;101846.31;5053263;28;20392;-70
2023/01/05 06:55:57;;;;;;;;;;;;;;;11.87;71.12;101840.09;5043605;28;20328;-71
2023/01/05 06:58:22;;;;;;;;;;;;;;;11.88;71.16;101842.56;5035272;28;19970;-75
2023/01/05 07:00:47;;;;;;;;;;;;;;;11.89;70.76;101849.63;5034366;28;19921;-76
2023/01/05 07:03:12;;;;;;;;;;;;;;;11.90;70.99;101845.06;5042811;28;19924;-73
2023/01/05 07:05:38;;;;;;;;;;;;;;;11.90;70.92;101851.28;5035179;28;19925;-73
2023/01/05 07:08:03;;;;;;;;;;;;;;;11.92;70.79;101845.66;5050830;28;19932;-75
2023/01/05 07:10:29;;;;;;;;;;;;;;;11.91;70.84;101852.94;5042120;28;20487;-74
2023/01/05 07:12:54;;;;;;;;;;;;;;;11.91;70.96;101846.69;5046782;28;19929;-75
2023/01/05 07:15:19;;;;;;;;;;;;;;;11.91;71.06;101852.09;5052334;28;19968;-75
2023/01/05 07:17:44;;;;;;;;;;;;;;;11.90;71.10;101843.16;5034969;28;20309;-75
2023/01/05 07:20:10;;;;;;;;;;;;;;;11.91;71.27;101846.69;5034408;28;20293;-75
2023/01/05 07:22:35;;;;;;;;;;;;;;;11.91;71.16;101857.53;5046866;28;20023;-74
2023/01/05 07:25:00;;;;;;;;;;;;;;;11.90;70.98;101856.69;5050236;28;20005;-75
2023/01/05 07:27:26;;;;;;;;;;;;;;;11.89;70.93;101865.03;5038318;28;19921;-75
2023/01/05 07:29:51;;;;;;;;;;;;;;;11.89;71.14;101862.31;5034405;28;19952;-76
2023/01/05 07:32:16;;;;;;;;;;;;;;;11.89;70.93;101862.31;5036549;28;19917;-75
2023/01/05 07:34:41;;;;;;;;;;;;;;;11.89;70.86;101871.31;5043278;28;20300;-75
2023/01/05 07:37:07;;;;;;;;;;;;;;;11.88;71.07;101869.63;5045894;28;19983;-75
2023/01/05 07:39:32;;;;;;;;;;;;;;;11.89;70.83;101873.16;5038519;28;20717;-75
2023/01/05 07:41:57;;;;;;;;;;;;;;;11.88;70.89;101871.50;5034087;28;20349;-75
2023/01/05 07:44:22;;;;;;;;;;;;;;;11.87;71.02;101875.28;5049537;28;19925;-74
2023/01/05 07:46:48;;;;;;;;;;;;;;;11.87;71.01;101872.56;5052875;28;19932;-75
2023/01/05 07:49:14;;;;;;;;;;;;;;;11.86;71.10;101874.44;5051937;28;20008;-75
2023/01/05 07:51:39;;;;;;;;;;;;;;;11.86;70.88;101873.56;5035311;28;19921;-75
2023/01/05 07:54:04;;;;;;;;;;;;;;;11.85;71.12;101883.59;5033670;28;20343;-75
2023/01/05 07:56:30;;;;;;;;;;;;;;;11.85;71.03;101889.00;5034344;28;19928;-75
2023/01/05 07:58:55;;;;;;;;;;;;;;;11.86;71.27;101879.00;5036282;28;20344;-75
2023/01/05 08:01:20;;;;;;;;;;;;;;;11.87;71.08;101886.13;5034220;28;19921;-74
2023/01/05 08:03:46;;;;;;;;;;;;;;;11.87;70.91;101896.94;5036462;28;20011;-75
2023/01/05 08:06:13;;;;;;;;;;;;;;;11.87;70.96;101896.94;5033267;28;19917;-75
2023/01/05 08:08:38;;;;;;;;;;;;;;;11.88;71.14;101904.00;5035345;28;19917;-74
2023/01/05 08:11:04;;;;;;;;;;;;;;;11.87;71.07;101894.25;5049208;28;19928;-80
2023/01/05 08:16:13;;;;;;;;;;;;;;;11.86;71.07;101914.19;5033322;28;19940;-75
2023/01/05 08:18:39;;;;;;;;;;;;;;;11.86;70.88;101917.75;5033990;28;19921;-75
2023/01/05 08:21:05;;;;;;;;;;;;;;;11.86;70.80;101917.75;5050379;28;20380;-75
2023/01/05 08:23:31;;;;;;;;;;;;;;;11.86;71.11;101915.03;5052531;28;20235;-75
2023/01/05 08:26:02;;;;;;;;;;;;;;;11.87;71.20;101924.84;5049608;28;19920;-74
2023/01/05 08:28:28;;;;;;;;;;;;;;;11.86;71.00;101915.03;5033526;28;19917;-74
2023/01/05 08:30:58;;;;;;;;;;;;;;;11.86;71.09;101914.19;5038888;28;19929;-76
2023/01/05 08:33:24;;;;;;;;;;;;;;;11.86;71.10;101916.91;5045864;28;19932;-74
2023/01/05 08:35:49;;;;;;;;;;;;;;;11.86;71.13;101920.47;5041431;28;20020;-75
2023/01/05 08:38:14;;;;;;;;;;;;;;;11.87;71.14;101921.31;5043739;28;19932;-75
2023/01/05 08:40:39;;;;;;;;;;;;;;;11.87;71.09;101926.72;5031411;28;19950;-76
2023/01/05 08:43:05;;;;;;;;;;;;;;;11.88;71.09;101931.06;5041139;28;19968;-75
2023/01/05 08:45:31;;;;;;;;;;;;;;;11.86;70.98;101947.53;5050657;28;19943;-75
2023/01/05 08:47:56;;;;;;;;;;;;;;;11.87;71.07;101948.38;5032672;28;19927;-75
2023/01/05 08:50:21;;;;;;;;;;;;;;;11.86;71.06;101946.69;5040601;28;19925;-74
2023/01/05 08:52:46;;;;;;;;;;;;;;;11.86;71.06;101946.69;5031247;28;19928;-75
2023/01/05 08:55:12;;;;;;;;;;;;;;;11.86;71.18;101958.34;5037909;28;19931;-75
2023/01/05 08:57:37;;;;;;;;;;;;;;;11.87;71.14;101953.81;5048681;28;20335;-76
2023/01/05 09:00:03;;;;;;;;;;;;;;;11.86;70.99;101961.06;5048394;28;20311;-75
2023/01/05 09:02:28;;;;;;;;;;;;;;;11.86;70.94;101955.66;5031545;28;20128;-75
2023/01/05 09:04:57;;;;;;;;;;;;;;;11.87;71.05;101961.91;5043503;28;20015;-75
2023/01/05 09:07:23;;;;;;;;;;;;;;;11.86;71.09;101962.91;5045331;28;19925;-75
2023/01/05 09:09:48;;;;;;;;;;;;;;;11.87;71.10;101970.03;5046330;28;19927;-75
2023/01/05 09:12:13;;;;;;;;;;;;;;;11.86;71.12;101960.22;5034225;28;19921;-75
2023/01/05 09:14:39;;;;;;;;;;;;;;;11.86;71.03;101957.50;5033253;28;20344;-75
2023/01/05 09:17:04;;;;;;;;;;;;;;;11.86;70.90;101952.94;5044334;28;19933;-75
2023/01/05 09:19:29;;;;;;;;;;;;;;;11.86;71.02;101969.19;5043808;28;20308;-75
2023/01/05 09:21:54;;;;;;;;;;;;;;;11.86;70.85;101971.03;5048369;28;19964;-75
2023/01/05 09:24:20;;;;;;;;;;;;;;;11.86;71.08;101965.63;5049957;28;20483;-75
2023/01/05 09:26:45;;;;;;;;;;;;;;;11.85;71.05;101970.22;5049609;28;19966;-76
2023/01/05 09:29:11;;;;;;;;;;;;;;;11.86;70.99;101971.91;5049108;28;20380;-75
2023/01/05 09:31:37;;;;;;;;;;;;;;;11.86;70.83;101971.91;5045622;28;20050;-75
2023/01/05 09:34:02;;;;;;;;;;;;;;;11.87;70.88;101989.00;5037224;28;20372;-75
2023/01/05 09:36:27;;;;;;;;;;;;;;;11.86;71.14;101988.13;5035560;28;19924;-76
2023/01/05 09:38:54;;;;;;;;;;;;;;;11.87;70.76;101992.53;5047464;28;20011;-75
2023/01/05 09:41:22;;;;;;;;;;;;;;;11.87;70.88;101991.69;5046499;28;19929;-74
2023/01/05 09:43:49;;;;;;;;;;;;;;;11.86;71.01;101993.56;5049340;28;19921;-74
2023/01/05 09:46:19;;;;;;;;;;;;;;;11.87;70.93;101991.69;5043731;28;19931;-75
2023/01/05 09:48:45;;;;;;;;;;;;;;;11.88;71.09;102002.28;5047040;28;19986;-75
2023/01/05 09:51:11;;;;;;;;;;;;;;;11.88;70.91;102002.28;5043481;28;19974;-75
2023/01/05 09:53:37;;;;;;;;;;;;;;;11.87;71.01;102003.34;5043010;28;19921;-75
2023/01/05 09:56:03;;;;;;;;;;;;;;;11.87;70.93;102002.53;5048159;28;19916;-75
2023/01/05 09:58:32;;;;;;;;;;;;;;;11.87;71.12;102011.47;5035609;28;19929;-75
2023/01/05 10:01:00;;;;;;;;;;;;;;;11.88;70.80;102006.88;5033851;28;20351;-75
2023/01/05 10:03:26;;;;;;;;;;;;;;;11.86;70.96;102004.38;5042411;28;19933;-76
2023/01/05 10:05:51;;;;;;;;;;;;;;;11.87;70.76;102007.94;5030731;28;19929;-75
2023/01/05 10:08:39;;;;;;;;;;;;;;;11.87;70.97;102007.94;5048464;28;19925;-75
2023/01/05 10:14:00;;;;;;;;;;;;;;;11.88;70.85;102012.31;5039657;28;19924;-76
2023/01/05 10:16:27;;;;;;;;;;;;;;;11.88;70.89;102015.00;5030168;28;19917;-76
2023/01/05 10:18:53;;;;;;;;;;;;;;;11.88;70.98;102015.84;5033051;28;19925;-75
2023/01/05 10:21:24;;;;;;;;;;;;;;;11.88;70.67;102020.44;5031193;28;20369;-75
2023/01/05 10:23:49;;;;;;;;;;;;;;;11.88;71.01;102023.94;5033564;28;19921;-75
2023/01/05 10:26:14;;;;;;;;;;;;;;;11.89;71.00;102022.06;5033925;28;20012;-75
2023/01/05 10:29:00;;;;;;;;;;;;;;;11.90;70.92;102026.44;5048298;28;19928;-75
2023/01/05 10:31:44;;;;;;;;;;;;;;;11.90;70.95;102029.97;5038297;28;20361;-74
2023/01/05 10:34:22;;;;;;;;;;;;;;;11.90;71.15;102034.56;5033804;28;19932;-75
2023/01/05 10:36:50;;;;;;;;;;;;;;;11.90;71.10;102029.97;5033624;28;19952;-75
2023/01/05 10:39:30;;;;;;;;;;;;;;;11.91;70.88;102030.81;5037303;28;20024;-73
2023/01/05 10:42:13;;;;;;;;;;;;;;;11.92;71.03;102032.47;5033117;28;19917;-74
2023/01/05 10:44:41;;;;;;;;;;;;;;;11.91;71.29;102033.50;5039879;28;19922;-76
2023/01/05 10:47:10;;;;;;;;;;;;;;;11.92;70.73;102037.91;5049905;28;19924;-77
2023/01/05 10:49:36;;;;;;;;;;;;;;;11.93;70.95;102034.13;5040267;28;19920;-75
2023/01/05 10:52:01;;;;;;;;;;;;;;;11.93;71.05;102039.53;5046417;28;19970;-76
2023/01/05 10:54:35;;;;;;;;;;;;;;;11.93;70.90;102039.53;5034357;28;20290;-76
2023/01/05 10:57:19;;;;;;;;;;;;;;;11.94;71.11;102034.94;5049321;28;20122;-75
2023/01/05 10:59:58;;;;;;;;;;;;;;;11.95;70.91;102042.03;5051803;28;19983;-75
2023/01/05 11:02:24;;;;;;;;;;;;;;;11.94;70.88;102029.53;5052453;28;19916;-76
2023/01/05 11:04:49;;;;;;;;;;;;;;;11.94;71.00;102035.78;5053171;28;19924;-75
2023/01/05 11:07:15;;;;;;;;;;;;;;;11.95;70.86;102040.16;5037942;28;20277;-76
2023/01/05 11:09:42;;;;;;;;;;;;;;;11.96;71.05;102041.81;5051535;28;19978;-76
2023/01/05 11:12:18;;;;;;;;;;;;;;;11.96;70.96;102044.50;5040548;28;19944;-76
2023/01/05 11:14:46;;;;;;;;;;;;;;;11.96;70.93;102044.50;5040870;28;19917;-76
2023/01/05 11:17:16;;;;;;;;;;;;;;;11.97;70.97;102035.34;5034569;28;19921;-76
2023/01/05 11:19:44;;;;;;;;;;;;;;;11.98;71.00;102033.47;5035053;28;19924;-75
2023/01/05 11:22:32;;;;;;;;;;;;;;;11.99;70.90;102027.81;5032802;28;19925;-75
2023/01/05 11:25:17;;;;;;;;;;;;;;;11.99;71.12;102033.25;5035998;28;20789;-75
2023/01/05 11:27:42;;;;;;;;;;;;;;;12.00;70.93;102023.25;5045036;28;19925;-75
2023/01/05 11:30:13;;;;;;;;;;;;;;;11.99;70.97;102025.09;5051005;28;19925;-76
2023/01/05 11:32:39;;;;;;;;;;;;;;;12.01;70.91;102024.91;5052207;28;19921;-77
2023/01/05 11:35:15;;;;;;;;;;;;;;;12.02;71.15;102021.13;5051760;28;19966;-75
2023/01/05 11:37:42;;;;;;;;;;;;;;;12.03;70.99;102023.63;5048363;28;19925;-76
2023/01/05 11:40:14;;;;;;;;;;;;;;;12.04;71.12;102019.03;5051855;28;19924;-76
2023/01/05 11:42:42;;;;;;;;;;;;;;;12.04;71.27;102022.56;5038790;28;20071;-76
2023/01/05 11:45:19;;;;;;;;;;;;;;;12.04;71.11;102019.84;5044294;28;19921;-76
2023/01/05 11:47:49;;;;;;;;;;;;;;;12.06;71.17;102017.75;5047334;28;19917;-75
2023/01/05 11:50:15;;;;;;;;;;;;;;;12.06;71.04;102014.22;5038969;28;19920;-76
2023/01/05 11:52:41;;;;;;;;;;;;;;;12.06;71.14;102015.06;5033133;28;20400;-76
2023/01/05 11:55:19;;;;;;;;;;;;;;;12.08;70.98;102012.13;5045562;28;20292;-76
2023/01/05 11:57:45;;;;;;;;;;;;;;;12.08;71.01;102004.84;5042815;28;20282;-75
2023/01/05 12:00:24;;;;;;;;;;;;;;;12.10;70.97;102010.88;5033758;28;20414;-75
2023/01/05 12:02:58;;;;;;;;;;;;;;;12.09;71.04;102009.19;5044155;28;20309;-75
2023/01/05 12:05:27;;;;;;;;;;;;;;;12.11;71.32;102015.22;5031923;28;19917;-76
2023/01/05 12:08:00;;;;;;;;;;;;;;;12.12;71.09;102008.78;5037152;28;19943;-76
2023/01/05 12:10:46;;;;;;;;;;;;;;;12.13;70.99;102010.41;5031717;28;19921;-76
2023/01/05 12:13:23;;;;;;;;;;;;;;;12.13;71.17;102012.31;5031793;28;19927;-77
2023/01/05 12:15:52;;;;;;;;;;;;;;;12.12;71.11;102014.19;5049203;28;20300;-76
2023/01/05 12:18:36;;;;;;;;;;;;;;;12.14;71.11;102011.25;5036714;28;19921;-76
2023/01/05 12:21:22;;;;;;;;;;;;;;;12.15;71.23;101998.56;5039763;28;20020;-76
2023/01/05 12:24:05;;;;;;;;;;;;;;;12.16;71.27;102003.72;5033911;28;20377;-76
2023/01/05 12:26:37;;;;;;;;;;;;;;;12.17;71.11;101999.13;5048882;28;20108;-76
2023/01/05 12:29:02;;;;;;;;;;;;;;;12.17;71.28;101996.41;5034389;28;19917;-75
2023/01/05 12:31:27;;;;;;;;;;;;;;;12.17;71.14;102002.69;5047994;28;19986;-75
2023/01/05 12:33:55;;;;;;;;;;;;;;;12.18;71.15;101993.50;5035266;28;19963;-75
2023/01/05 12:36:27;;;;;;;;;;;;;;;12.20;71.15;101993.28;5039973;28;19991;-76
2023/01/05 12:38:55;;;;;;;;;;;;;;;12.20;71.27;101988.69;5051463;28;19920;-76
2023/01/05 12:41:33;;;;;;;;;;;;;;;12.21;71.16;101997.66;5050446;28;19991;-76
2023/01/05 12:44:06;;;;;;;;;;;;;;;12.22;71.25;101999.28;5032267;28;19955;-75
2023/01/05 12:46:34;;;;;;;;;;;;;;;12.23;71.30;101992.84;5032701;28;20008;-76
2023/01/05 12:49:05;;;;;;;;;;;;;;;12.25;71.25;101988.03;5031268;28;19936;-76
2023/01/05 12:51:39;;;;;;;;;;;;;;;12.25;71.35;101991.56;5043990;28;19921;-76
2023/01/05 12:54:08;;;;;;;;;;;;;;;12.26;71.00;101989.69;5038524;28;20019;-76
2023/01/05 12:56:36;;;;;;;;;;;;;;;12.25;71.24;101994.28;5035767;28;19916;-76
2023/01/05 12:59:20;;;;;;;;;;;;;;;12.27;71.10;101996.75;5044058;28;20011;-75
2023/01/05 13:01:58;;;;;;;;;;;;;;;12.27;71.17;101984.03;5033932;28;19924;-75
2023/01/05 13:04:27;;;;;;;;;;;;;;;12.27;71.27;101986.75;5046383;28;19939;-75
2023/01/05 13:06:56;;;;;;;;;;;;;;;12.29;71.13;101984.63;5052198;28;19925;-75
2023/01/05 13:09:24;;;;;;;;;;;;;;;12.30;71.05;101985.47;5043125;28;19921;-75
2023/01/05 13:11:57;;;;;;;;;;;;;;;12.32;71.18;101980.63;5033350;28;19921;-76
2023/01/05 13:14:31;;;;;;;;;;;;;;;12.32;71.12;101975.22;5039605;28;19929;-75
2023/01/05 13:17:02;;;;;;;;;;;;;;;12.33;71.23;101972.31;5036563;28;19916;-75